sensor_id;sensor_type;location;lat;lon;timestamp;pressure;altitude;pressure_sealevel;temperature;humidity
48027;BME280;50714;49.208;5.364;2023-02-28T00:06:57;100301.16;;;1.86;41.42
48027;BME280;50714;49.208;5.364;2023-02-28T00:16:57;100304.31;;;1.80;42.08
48027;BME280;50714;49.208;5.364;2023-02-28T00:26:57;100314.31;;;1.55;42.40
48027;BME280;50714;49.208;5.364;2023-02-28T00:36:58;100307.44;;;1.53;42.78
48027;BME280;50714;49.208;5.364;2023-02-28T00:46:59;100311.47;;;1.36;43.31
48027;BME280;50714;49.208;5.364;2023-02-28T00:57:00;100323.34;;;1.32;43.42
48027;BME280;50714;49.208;5.364;2023-02-28T01:07:00;100325.75;;;1.24;43.16
48027;BME280;50714;49.208;5.364;2023-02-28T01:17:01;100329.41;;;1.12;44.28
48027;BME280;50714;49.208;5.364;2023-02-28T01:27:01;100322.06;;;0.93;44.24
48027;BME280;50714;49.208;5.364;2023-02-28T01:37:02;100321.22;;;0.92;45.19
48027;BME280;50714;49.208;5.364;2023-02-28T01:47:03;100321.09;;;0.94;44.71
48027;BME280;50714;49.208;5.364;2023-02-28T01:57:08;100322.91;;;0.82;45.67
48027;BME280;50714;49.208;5.364;2023-02-28T02:07:10;100320.84;;;0.86;45.39
48027;BME280;50714;49.208;5.364;2023-02-28T02:17:25;100318.44;;;0.83;46.11
48027;BME280;50714;49.208;5.364;2023-02-28T02:49:01;100308.06;;;0.68;46.46
48027;BME280;50714;49.208;5.364;2023-02-28T02:59:07;100293.06;;;0.56;46.67
48027;BME280;50714;49.208;5.364;2023-02-28T03:09:09;100290.88;;;0.50;47.03
48027;BME280;50714;49.208;5.364;2023-02-28T03:39:35;100292.22;;;0.45;49.23
48027;BME280;50714;49.208;5.364;2023-02-28T03:49:45;100295.72;;;0.34;48.80
48027;BME280;50714;49.208;5.364;2023-02-28T03:59:54;100294.50;;;0.38;49.57
48027;BME280;50714;49.208;5.364;2023-02-28T04:09:56;100293.91;;;0.34;48.68
48027;BME280;50714;49.208;5.364;2023-02-28T04:19:57;100297.41;;;0.35;49.29
48027;BME280;50714;49.208;5.364;2023-02-28T04:29:57;100304.97;;;0.28;49.12
48027;BME280;50714;49.208;5.364;2023-02-28T04:39:58;100304.75;;;0.20;49.74
48027;BME280;50714;49.208;5.364;2023-02-28T04:49:58;100299.78;;;0.16;49.88
48027;BME280;50714;49.208;5.364;2023-02-28T04:59:58;100306.53;;;0.09;50.35
48027;BME280;50714;49.208;5.364;2023-02-28T05:09:59;100299.00;;;0.03;50.94
48027;BME280;50714;49.208;5.364;2023-02-28T05:19:59;100301.31;;;-0.04;51.38
48027;BME280;50714;49.208;5.364;2023-02-28T05:30:00;100308.88;;;-0.11;51.33
48027;BME280;50714;49.208;5.364;2023-02-28T05:40:05;100304.94;;;-0.05;51.57
48027;BME280;50714;49.208;5.364;2023-02-28T05:50:11;100302.22;;;-0.16;51.91
48027;BME280;50714;49.208;5.364;2023-02-28T06:00:12;100318.38;;;-0.19;52.81
48027;BME280;50714;49.208;5.364;2023-02-28T06:10:15;100323.31;;;-0.15;53.31
48027;BME280;50714;49.208;5.364;2023-02-28T06:20:15;100333.66;;;-0.23;53.75
48027;BME280;50714;49.208;5.364;2023-02-28T06:30:16;100337.16;;;-0.22;54.27
48027;BME280;50714;49.208;5.364;2023-02-28T06:40:17;100336.78;;;-0.29;55.48
48027;BME280;50714;49.208;5.364;2023-02-28T06:50:17;100344.53;;;-0.26;55.59
48027;BME280;50714;49.208;5.364;2023-02-28T07:00:19;100357.19;;;-0.18;56.16
48027;BME280;50714;49.208;5.364;2023-02-28T07:10:20;100370.63;;;-0.09;56.99
48027;BME280;50714;49.208;5.364;2023-02-28T07:20:21;100376.88;;;0.14;56.90
48027;BME280;50714;49.208;5.364;2023-02-28T07:30:21;100375.97;;;0.49;57.07
48027;BME280;50714;49.208;5.364;2023-02-28T07:40:21;100377.19;;;1.99;57.32
48027;BME280;50714;49.208;5.364;2023-02-28T07:50:22;100385.63;;;5.48;52.33
48027;BME280;50714;49.208;5.364;2023-02-28T08:00:23;100380.06;;;7.94;48.43
48027;BME280;50714;49.208;5.364;2023-02-28T08:10:23;100383.13;;;9.51;45.21
48027;BME280;50714;49.208;5.364;2023-02-28T08:20:25;100374.31;;;10.65;42.65
48027;BME280;50714;49.208;5.364;2023-02-28T08:30:25;100376.44;;;11.07;41.66
48027;BME280;50714;49.208;5.364;2023-02-28T08:40:27;100377.72;;;11.70;40.83
48027;BME280;50714;49.208;5.364;2023-02-28T08:50:27;100359.97;;;12.61;39.52
48027;BME280;50714;49.208;5.364;2023-02-28T09:00:28;100369.47;;;13.34;37.85
48027;BME280;50714;49.208;5.364;2023-02-28T09:10:28;100369.91;;;13.38;35.81
48027;BME280;50714;49.208;5.364;2023-02-28T09:20:28;100361.25;;;12.93;33.04
48027;BME280;50714;49.208;5.364;2023-02-28T09:30:30;100352.31;;;11.50;35.50
48027;BME280;50714;49.208;5.364;2023-02-28T09:40:31;100342.16;;;12.52;34.26
48027;BME280;50714;49.208;5.364;2023-02-28T09:50:45;100354.06;;;13.82;31.40
48027;BME280;50714;49.208;5.364;2023-02-28T10:00:56;100340.59;;;14.35;30.33
48027;BME280;50714;49.208;5.364;2023-02-28T10:11:00;100346.53;;;12.25;31.01
48027;BME280;50714;49.208;5.364;2023-02-28T10:21:02;100344.38;;;9.13;34.07
48027;BME280;50714;49.208;5.364;2023-02-28T10:31:03;100331.53;;;9.63;35.56
48027;BME280;50714;49.208;5.364;2023-02-28T10:51:11;100328.81;;;13.34;30.37
48027;BME280;50714;49.208;5.364;2023-02-28T11:01:17;100323.94;;;14.58;27.81
48027;BME280;50714;49.208;5.364;2023-02-28T11:11:18;100312.94;;;12.69;29.03
48027;BME280;50714;49.208;5.364;2023-02-28T11:21:31;100325.88;;;10.86;29.91
48027;BME280;50714;49.208;5.364;2023-02-28T11:31:36;100308.66;;;8.32;33.57
48027;BME280;50714;49.208;5.364;2023-02-28T12:22:30;100298.50;;;7.02;36.24
48027;BME280;50714;49.208;5.364;2023-02-28T12:32:40;100277.47;;;6.56;37.08
48027;BME280;50714;49.208;5.364;2023-02-28T12:42:46;100274.47;;;6.59;36.94
48027;BME280;50714;49.208;5.364;2023-02-28T13:03:17;100275.22;;;5.81;38.11
48027;BME280;50714;49.208;5.364;2023-02-28T13:13:26;100259.44;;;5.61;38.03
48027;BME280;50714;49.208;5.364;2023-02-28T13:54:27;100261.09;;;5.26;40.34
48027;BME280;50714;49.208;5.364;2023-02-28T14:15:01;100269.66;;;5.30;39.21
48027;BME280;50714;49.208;5.364;2023-02-28T14:46:02;100259.00;;;5.20;39.44
48027;BME280;50714;49.208;5.364;2023-02-28T14:56:03;100253.44;;;5.13;39.45
48027;BME280;50714;49.208;5.364;2023-02-28T15:06:05;100258.38;;;5.08;39.40
48027;BME280;50714;49.208;5.364;2023-02-28T15:16:33;100267.44;;;5.25;39.54
48027;BME280;50714;49.208;5.364;2023-02-28T15:26:40;100259.69;;;5.22;39.48
48027;BME280;50714;49.208;5.364;2023-02-28T15:36:41;100258.19;;;5.20;39.53
48027;BME280;50714;49.208;5.364;2023-02-28T15:46:45;100249.00;;;5.22;39.29
48027;BME280;50714;49.208;5.364;2023-02-28T15:56:55;100248.22;;;5.12;39.69
48027;BME280;50714;49.208;5.364;2023-02-28T16:07:00;100255.59;;;5.00;39.84
48027;BME280;50714;49.208;5.364;2023-02-28T16:17:21;100261.91;;;5.09;40.05
48027;BME280;50714;49.208;5.364;2023-02-28T16:27:28;100268.66;;;5.13;39.98
48027;BME280;50714;49.208;5.364;2023-02-28T16:37:30;100279.19;;;4.87;40.69
48027;BME280;50714;49.208;5.364;2023-02-28T16:47:30;100272.88;;;4.78;40.26
48027;BME280;50714;49.208;5.364;2023-02-28T16:57:32;100278.59;;;4.66;40.49
48027;BME280;50714;49.208;5.364;2023-02-28T17:07:33;100285.06;;;4.54;40.50
48027;BME280;50714;49.208;5.364;2023-02-28T17:17:33;100296.09;;;4.41;41.19
48027;BME280;50714;49.208;5.364;2023-02-28T17:27:34;100315.78;;;4.30;41.10
48027;BME280;50714;49.208;5.364;2023-02-28T17:37:34;100321.16;;;4.11;41.53
48027;BME280;50714;49.208;5.364;2023-02-28T17:47:35;100340.56;;;4.03;42.25
48027;BME280;50714;49.208;5.364;2023-02-28T17:57:35;100344.34;;;3.82;41.89
48027;BME280;50714;49.208;5.364;2023-02-28T18:07:39;100353.34;;;3.81;42.01
48027;BME280;50714;49.208;5.364;2023-02-28T18:17:40;100348.53;;;3.55;42.07
48027;BME280;50714;49.208;5.364;2023-02-28T18:27:41;100352.97;;;3.26;43.17
48027;BME280;50714;49.208;5.364;2023-02-28T18:37:52;100352.44;;;2.71;44.39
48027;BME280;50714;49.208;5.364;2023-02-28T18:47:53;100349.00;;;2.38;45.20
48027;BME280;50714;49.208;5.364;2023-02-28T18:57:53;100356.38;;;1.93;46.64
48027;BME280;50714;49.208;5.364;2023-02-28T19:07:54;100353.22;;;1.67;47.28
48027;BME280;50714;49.208;5.364;2023-02-28T19:17:54;100351.34;;;1.47;47.78
48027;BME280;50714;49.208;5.364;2023-02-28T19:27:54;100341.78;;;1.45;47.86
48027;BME280;50714;49.208;5.364;2023-02-28T19:37:56;100357.06;;;1.20;48.32
48027;BME280;50714;49.208;5.364;2023-02-28T19:47:56;100355.03;;;1.01;49.16
48027;BME280;50714;49.208;5.364;2023-02-28T19:57:56;100366.72;;;1.21;48.78
48027;BME280;50714;49.208;5.364;2023-02-28T20:07:56;100351.56;;;1.55;48.16
48027;BME280;50714;49.208;5.364;2023-02-28T20:17:57;100354.91;;;1.68;47.57
48027;BME280;50714;49.208;5.364;2023-02-28T20:27:59;100357.09;;;1.95;47.43
48027;BME280;50714;49.208;5.364;2023-02-28T20:37:59;100356.94;;;2.08;47.05
48027;BME280;50714;49.208;5.364;2023-02-28T20:48:00;100348.75;;;2.21;46.80
48027;BME280;50714;49.208;5.364;2023-02-28T20:58:00;100347.66;;;2.23;46.63
48027;BME280;50714;49.208;5.364;2023-02-28T21:08:01;100348.00;;;2.30;46.46
48027;BME280;50714;49.208;5.364;2023-02-28T21:18:01;100363.84;;;2.31;46.15
48027;BME280;50714;49.208;5.364;2023-02-28T21:28:02;100357.69;;;2.31;46.08
48027;BME280;50714;49.208;5.364;2023-02-28T21:38:02;100357.72;;;2.20;46.48
48027;BME280;50714;49.208;5.364;2023-02-28T21:48:03;100370.56;;;2.15;46.60
48027;BME280;50714;49.208;5.364;2023-02-28T21:58:03;100352.59;;;2.07;46.75
48027;BME280;50714;49.208;5.364;2023-02-28T22:08:04;100360.84;;;2.04;47.02
48027;BME280;50714;49.208;5.364;2023-02-28T22:18:04;100355.28;;;1.96;47.02
48027;BME280;50714;49.208;5.364;2023-02-28T22:28:04;100344.91;;;1.93;47.75
48027;BME280;50714;49.208;5.364;2023-02-28T22:38:05;100351.31;;;1.90;47.21
48027;BME280;50714;49.208;5.364;2023-02-28T22:48:07;100351.97;;;1.83;47.68
48027;BME280;50714;49.208;5.364;2023-02-28T22:58:10;100350.91;;;1.74;47.93
48027;BME280;50714;49.208;5.364;2023-02-28T23:08:10;100352.75;;;1.62;48.13
48027;BME280;50714;49.208;5.364;2023-02-28T23:18:11;100356.63;;;1.58;48.63
48027;BME280;50714;49.208;5.364;2023-02-28T23:28:12;100352.16;;;1.59;48.43
48027;BME280;50714;49.208;5.364;2023-02-28T23:38:12;100365.59;;;1.46;48.53
48027;BME280;50714;49.208;5.364;2023-02-28T23:48:12;100362.34;;;1.54;48.84
48027;BME280;50714;49.208;5.364;2023-02-28T23:58:13;100373.09;;;1.52;48.69
